createdAt,value
2022-08-27T00:01:50.904Z,50.08
2022-08-27T00:04:19.102Z,42.28
2022-08-27T00:06:47.456Z,47.20
2022-08-27T00:09:15.701Z,42.63
2022-08-27T00:11:46.535Z,45.78
2022-08-27T00:14:15.330Z,43.67
2022-08-27T00:16:43.946Z,33.13
2022-08-27T00:19:12.623Z,32.53
2022-08-27T00:21:40.835Z,35.80
2022-08-27T00:24:09.035Z,50.50
2022-08-27T00:26:41.321Z,51.40
2022-08-27T00:29:13.008Z,64.15
2022-08-27T00:31:41.288Z,58.53
2022-08-27T00:34:13.099Z,49.60
2022-08-27T00:36:41.921Z,51.97
2022-08-27T00:39:10.828Z,64.93
2022-08-27T00:41:39.297Z,60.78
2022-08-27T00:44:09.251Z,46.65
2022-08-27T00:46:43.165Z,60.58
2022-08-27T00:49:14.801Z,65.72
2022-08-27T00:51:44.497Z,71.65
2022-08-27T00:54:18.733Z,49.60
2022-08-27T00:56:51.605Z,50.58
2022-08-27T00:59:23.626Z,38.28
2022-08-27T01:02:11.906Z,40.65
2022-08-27T01:04:41.804Z,35.65
2022-08-27T01:07:10.740Z,32.95
2022-08-27T01:09:39.473Z,32.58
2022-08-27T01:12:07.756Z,32.75
2022-08-27T01:14:36.414Z,29.77
2022-08-27T01:17:09.067Z,33.53
2022-08-27T01:19:43.711Z,29.27
2022-08-27T01:22:21.969Z,31.83
2022-08-27T01:24:56.116Z,40.95
2022-08-27T01:27:27.097Z,39.58
2022-08-27T01:29:55.222Z,31.00
2022-08-27T01:32:26.274Z,36.35
2022-08-27T01:34:55.663Z,32.33
2022-08-27T01:37:25.406Z,30.88
2022-08-27T01:39:59.229Z,34.70
2022-08-27T01:42:31.668Z,33.97
2022-08-27T01:45:01.579Z,42.90
2022-08-27T01:47:35.288Z,38.17
2022-08-27T01:50:05.349Z,29.58
2022-08-27T01:52:33.432Z,28.73
2022-08-27T01:55:03.417Z,26.05
2022-08-27T01:57:32.568Z,32.00
2022-08-27T02:00:00.815Z,26.75
2022-08-27T02:02:28.865Z,26.92
2022-08-27T02:04:57.235Z,25.23
2022-08-27T02:07:25.348Z,25.75
2022-08-27T02:09:53.534Z,26.05
2022-08-27T02:12:23.314Z,26.30
2022-08-27T02:14:51.928Z,27.85
2022-08-27T02:17:19.968Z,28.90
2022-08-27T02:19:48.154Z,24.42
2022-08-27T02:22:17.121Z,18.92
2022-08-27T02:24:45.571Z,27.30
2022-08-27T02:27:13.818Z,23.15
2022-08-27T02:29:43.323Z,23.23
2022-08-27T02:32:23.989Z,21.70
2022-08-27T02:35:00.682Z,24.25
2022-08-27T02:37:28.997Z,36.13
2022-08-27T02:39:57.279Z,34.95
2022-08-27T02:42:25.616Z,34.28
2022-08-27T02:44:55.041Z,50.97
2022-08-27T02:47:23.263Z,53.67
2022-08-27T02:49:51.347Z,68.72
2022-08-27T02:52:25.026Z,77.10
2022-08-27T02:54:54.142Z,89.60
2022-08-27T02:57:22.357Z,94.45
2022-08-27T02:59:50.642Z,104.30
2022-08-27T03:02:20.955Z,94.35
2022-08-27T03:04:49.727Z,86.38
2022-08-27T03:07:19.649Z,75.22
2022-08-27T03:09:47.883Z,70.43
2022-08-27T03:12:16.693Z,75.25
2022-08-27T03:14:45.906Z,84.03
2022-08-27T03:17:31.330Z,85.28
2022-08-27T03:20:02.011Z,71.55
2022-08-27T03:22:30.404Z,62.80
2022-08-27T03:24:58.423Z,65.28
2022-08-27T03:27:26.693Z,88.38
2022-08-27T03:29:54.734Z,62.10
2022-08-27T03:32:22.795Z,76.22
2022-08-27T03:34:51.045Z,67.00
2022-08-27T03:37:20.526Z,56.42
2022-08-27T03:39:48.609Z,57.28
2022-08-27T03:42:16.783Z,70.90
2022-08-27T03:44:45.202Z,73.55
2022-08-27T03:47:13.527Z,101.55
2022-08-27T03:49:41.919Z,99.93
2022-08-27T03:52:10.912Z,84.50
2022-08-27T03:54:40.790Z,101.75
2022-08-27T03:57:09.714Z,98.10
2022-08-27T03:59:38.044Z,84.65
2022-08-27T04:02:06.647Z,89.15
2022-08-27T04:04:35.681Z,160.48
2022-08-27T04:07:03.790Z,107.53
2022-08-27T04:09:32.066Z,62.65
2022-08-27T04:12:01.730Z,68.70
2022-08-27T04:14:30.074Z,91.80
2022-08-27T04:16:58.427Z,85.35
2022-08-27T04:19:28.578Z,92.72
2022-08-27T04:22:01.615Z,61.47
2022-08-27T04:24:31.408Z,56.20
2022-08-27T04:27:01.084Z,110.70
2022-08-27T04:29:29.924Z,85.05
2022-08-27T04:31:59.010Z,105.80
2022-08-27T04:34:27.452Z,91.80
2022-08-27T04:36:57.260Z,75.57
2022-08-27T04:39:26.577Z,88.28
2022-08-27T04:41:57.262Z,105.95
2022-08-27T04:44:28.728Z,90.88
2022-08-27T04:46:58.971Z,78.13
2022-08-27T04:49:27.988Z,79.50
2022-08-27T04:51:56.443Z,69.75
2022-08-27T04:54:32.728Z,74.70
2022-08-27T04:57:02.803Z,62.47
2022-08-27T04:59:33.114Z,63.60
2022-08-27T05:02:03.590Z,61.10
2022-08-27T05:04:35.067Z,73.50
2022-08-27T05:07:03.217Z,102.57
2022-08-27T05:09:31.883Z,62.38
2022-08-27T05:12:00.187Z,67.47
2022-08-27T05:14:30.114Z,50.17
2022-08-27T05:17:00.064Z,75.18
2022-08-27T05:19:28.639Z,66.88
2022-08-27T05:21:56.948Z,67.18
2022-08-27T05:24:25.060Z,71.20
2022-08-27T05:26:54.051Z,95.90
2022-08-27T05:29:22.483Z,91.60
2022-08-27T05:31:50.756Z,82.97
2022-08-27T05:34:24.747Z,71.22
2022-08-27T05:36:54.785Z,108.07
2022-08-27T05:39:22.957Z,61.00
2022-08-27T05:41:52.453Z,86.70
2022-08-27T05:47:08.736Z,70.75
2022-08-27T05:49:38.756Z,103.53
2022-08-27T05:52:10.754Z,87.03
2022-08-27T05:54:39.768Z,70.03
2022-08-27T05:57:08.279Z,68.97
2022-08-27T05:59:53.609Z,76.97
2022-08-27T06:02:21.868Z,74.35
2022-08-27T06:04:51.574Z,57.28
2022-08-27T06:07:19.975Z,48.67
2022-08-27T06:09:48.004Z,60.20
2022-08-27T06:12:15.952Z,80.00
2022-08-27T06:14:44.069Z,68.55
2022-08-27T06:17:12.354Z,76.72
2022-08-27T06:19:42.354Z,79.40
2022-08-27T06:22:11.860Z,55.45
2022-08-27T06:24:41.862Z,69.13
2022-08-27T06:27:12.068Z,44.45
2022-08-27T06:29:40.639Z,55.95
2022-08-27T06:32:09.671Z,58.65
2022-08-27T06:34:38.575Z,80.88
2022-08-27T06:37:06.965Z,56.60
2022-08-27T06:39:37.597Z,53.78
2022-08-27T06:42:06.423Z,59.35
2022-08-27T06:44:35.249Z,68.47
2022-08-27T06:47:04.705Z,61.78
2022-08-27T06:49:33.702Z,78.95
2022-08-27T06:52:02.113Z,60.55
2022-08-27T06:54:30.199Z,63.05
2022-08-27T06:57:01.241Z,66.68
2022-08-27T06:59:29.507Z,61.83
2022-08-27T07:01:57.675Z,43.38
2022-08-27T07:04:32.224Z,43.80
2022-08-27T07:07:02.559Z,50.20
2022-08-27T07:09:32.456Z,37.90
2022-08-27T07:12:02.919Z,47.33
2022-08-27T07:14:37.077Z,42.88
2022-08-27T07:17:10.853Z,56.55
2022-08-27T07:19:41.063Z,52.17
2022-08-27T07:22:10.387Z,46.47
2022-08-27T07:24:38.646Z,41.83
2022-08-27T07:27:08.925Z,55.75
2022-08-27T07:29:37.197Z,51.67
2022-08-27T07:32:06.237Z,44.15
2022-08-27T07:34:34.396Z,57.78
2022-08-27T07:37:02.462Z,39.45
2022-08-27T07:39:30.575Z,52.78
2022-08-27T07:42:13.287Z,47.35
2022-08-27T07:44:42.715Z,48.35
2022-08-27T07:47:10.811Z,55.75
2022-08-27T07:49:38.845Z,48.65
2022-08-27T07:52:07.190Z,54.92
2022-08-27T07:54:35.382Z,51.92
2022-08-27T08:00:10.544Z,44.47
2022-08-27T08:02:44.902Z,45.50
2022-08-27T08:05:14.172Z,48.25
2022-08-27T08:07:42.656Z,40.42
2022-08-27T08:10:12.783Z,41.38
2022-08-27T08:12:41.926Z,57.92
2022-08-27T08:15:12.854Z,42.17
2022-08-27T08:17:41.259Z,36.63
2022-08-27T08:20:27.541Z,39.22
2022-08-27T08:23:01.057Z,38.00
2022-08-27T08:25:29.146Z,38.90
2022-08-27T08:28:03.895Z,40.72
2022-08-27T08:30:35.366Z,34.53
2022-08-27T08:33:03.971Z,40.60
2022-08-27T08:35:34.173Z,34.67
2022-08-27T08:38:09.143Z,41.28
2022-08-27T08:40:41.243Z,36.83
2022-08-27T08:43:21.279Z,41.15
2022-08-27T08:45:52.602Z,41.63
2022-08-27T08:48:23.416Z,38.58
2022-08-27T08:50:56.680Z,40.08
2022-08-27T08:53:37.620Z,38.85
2022-08-27T08:56:11.506Z,43.22
2022-08-27T08:58:47.080Z,39.13
2022-08-27T09:01:20.910Z,43.30
2022-08-27T09:03:54.111Z,40.28
2022-08-27T09:06:33.418Z,42.63
2022-08-27T09:09:19.256Z,36.25
2022-08-27T09:11:54.279Z,35.78
2022-08-27T09:14:34.087Z,47.72
2022-08-27T09:17:10.687Z,46.53
2022-08-27T09:19:39.930Z,37.72
2022-08-27T09:22:20.153Z,36.25
2022-08-27T09:24:59.720Z,42.80
2022-08-27T09:27:29.085Z,36.95
2022-08-27T09:29:58.176Z,44.47
2022-08-27T09:32:31.369Z,32.40
2022-08-27T09:35:01.619Z,40.00
2022-08-27T09:37:34.048Z,40.40
2022-08-27T09:40:13.298Z,38.42
2022-08-27T09:42:44.569Z,41.00
2022-08-27T09:45:19.255Z,35.60
2022-08-27T09:47:50.852Z,32.90
2022-08-27T09:50:22.054Z,36.10
2022-08-27T09:52:54.981Z,28.90
2022-08-27T09:55:33.201Z,32.05
2022-08-27T09:58:04.758Z,32.55
2022-08-27T10:00:38.331Z,31.73
2022-08-27T10:03:10.383Z,39.42
2022-08-27T10:05:44.277Z,28.55
2022-08-27T10:08:23.391Z,31.13
2022-08-27T10:10:57.286Z,29.15
2022-08-27T10:13:33.355Z,30.13
2022-08-27T10:16:22.906Z,29.02
2022-08-27T10:19:00.467Z,30.30
2022-08-27T10:21:40.557Z,30.02
2022-08-27T10:24:24.188Z,28.98
2022-08-27T10:27:03.060Z,33.97
2022-08-27T10:29:48.911Z,27.33
2022-08-27T10:32:36.881Z,27.52
2022-08-27T10:35:16.265Z,30.95
2022-08-27T10:37:56.098Z,32.45
2022-08-27T10:40:29.537Z,38.23
2022-08-27T10:43:19.583Z,33.57
2022-08-27T10:45:55.962Z,38.85
2022-08-27T10:48:32.097Z,38.33
2022-08-27T10:51:09.523Z,32.47
2022-08-27T10:53:45.879Z,30.80
2022-08-27T10:56:17.904Z,32.83
2022-08-27T10:59:04.543Z,33.28
2022-08-27T11:01:45.378Z,38.53
2022-08-27T11:04:18.618Z,33.53
2022-08-27T11:06:55.631Z,30.20
2022-08-27T11:09:38.044Z,29.38
2022-08-27T11:12:14.142Z,31.70
2022-08-27T11:14:48.192Z,33.67
2022-08-27T11:17:21.980Z,32.20
2022-08-27T11:19:56.552Z,30.97
2022-08-27T11:22:34.936Z,35.83
2022-08-27T11:25:10.234Z,35.93
2022-08-27T11:27:40.277Z,35.33
2022-08-27T11:30:12.742Z,36.73
2022-08-27T11:32:54.833Z,33.73
2022-08-27T11:35:35.654Z,40.40
2022-08-27T11:38:39.254Z,32.10
2022-08-27T11:41:28.453Z,34.00
2022-08-27T11:43:58.881Z,41.08
2022-08-27T11:46:29.710Z,42.60
2022-08-27T11:49:00.262Z,37.70
2022-08-27T11:51:35.028Z,36.80
2022-08-27T11:54:07.002Z,41.42
2022-08-27T11:56:42.601Z,37.90
2022-08-27T11:59:20.603Z,38.35
2022-08-27T12:01:49.847Z,36.13
2022-08-27T12:04:25.274Z,39.90
2022-08-27T12:07:01.873Z,43.90
2022-08-27T12:09:30.215Z,37.95
2022-08-27T12:12:07.783Z,34.30
2022-08-27T12:14:47.903Z,42.28
2022-08-27T12:17:28.105Z,37.00
2022-08-27T12:20:10.462Z,36.83
2022-08-27T12:23:12.396Z,37.70
2022-08-27T12:25:40.694Z,42.13
2022-08-27T12:28:11.085Z,38.70
2022-08-27T12:30:42.666Z,44.50
2022-08-27T12:33:20.544Z,37.20
2022-08-27T12:35:51.083Z,33.20
2022-08-27T12:38:21.949Z,36.30
2022-08-27T12:40:52.663Z,36.93
2022-08-27T12:43:26.384Z,35.17
2022-08-27T12:45:59.653Z,34.30
2022-08-27T12:48:30.982Z,31.37
2022-08-27T12:51:02.426Z,33.90
2022-08-27T12:53:45.636Z,30.20
2022-08-27T12:56:39.682Z,32.60
2022-08-27T12:59:30.506Z,35.53
2022-08-27T13:02:17.711Z,47.20
2022-08-27T13:04:50.009Z,35.13
2022-08-27T13:07:32.888Z,34.10
2022-08-27T13:10:14.821Z,33.70
2022-08-27T13:12:46.601Z,31.07
2022-08-27T13:15:25.154Z,30.80
2022-08-27T13:17:58.290Z,31.07
2022-08-27T13:20:39.536Z,31.23
2022-08-27T13:23:20.418Z,26.50
2022-08-27T13:26:04.121Z,29.53
2022-08-27T13:28:37.123Z,31.17
2022-08-27T13:31:12.121Z,30.40
2022-08-27T13:33:45.698Z,27.73
2022-08-27T13:36:18.296Z,32.13
2022-08-27T13:38:51.693Z,28.17
2022-08-27T13:41:32.629Z,24.83
2022-08-27T13:44:14.218Z,28.50
2022-08-27T13:46:52.229Z,26.97
2022-08-27T13:49:24.324Z,25.80
2022-08-27T13:52:02.791Z,27.13
2022-08-27T13:54:32.954Z,26.93
2022-08-27T13:57:08.257Z,26.60
2022-08-27T13:59:42.843Z,30.17
2022-08-27T14:02:27.378Z,28.27
2022-08-27T14:05:11.337Z,27.33
2022-08-27T14:07:44.839Z,27.23
2022-08-27T14:10:30.900Z,26.03
2022-08-27T14:13:02.239Z,26.47
2022-08-27T14:15:34.392Z,26.33
2022-08-27T14:18:07.097Z,29.00
2022-08-27T14:20:37.532Z,27.20
2022-08-27T14:23:06.373Z,26.77
2022-08-27T14:25:35.264Z,27.63
2022-08-27T14:28:04.254Z,24.70
2022-08-27T14:30:32.540Z,26.10
2022-08-27T14:33:04.838Z,30.93
2022-08-27T14:35:37.833Z,25.40
2022-08-27T14:38:19.822Z,29.80
2022-08-27T14:40:58.046Z,32.57
2022-08-27T14:43:33.748Z,29.77
2022-08-27T14:46:10.074Z,34.03
2022-08-27T14:48:51.873Z,38.63
2022-08-27T14:51:28.211Z,47.30
2022-08-27T14:54:02.703Z,41.97
2022-08-27T14:56:37.101Z,44.80
2022-08-27T14:59:09.717Z,42.20
2022-08-27T15:01:41.111Z,43.27
2022-08-27T15:04:11.603Z,51.10
2022-08-27T15:06:39.870Z,41.50
2022-08-27T15:09:10.321Z,43.73
2022-08-27T15:11:42.982Z,44.13
2022-08-27T15:14:21.147Z,45.53
2022-08-27T15:16:53.591Z,47.28
2022-08-27T15:19:26.090Z,41.17
2022-08-27T15:22:04.776Z,42.30
2022-08-27T15:24:44.397Z,47.47
2022-08-27T15:27:17.179Z,47.97
2022-08-27T15:29:50.933Z,50.97
2022-08-27T15:32:28.863Z,49.60
2022-08-27T15:35:02.576Z,51.40
2022-08-27T15:37:30.862Z,44.45
2022-08-27T15:39:59.291Z,40.70
2022-08-27T15:42:28.250Z,45.92
2022-08-27T15:44:58.150Z,49.97
2022-08-27T15:47:28.596Z,43.83
2022-08-27T15:49:57.329Z,46.72
2022-08-27T15:52:40.305Z,47.28
2022-08-27T15:55:15.886Z,51.00
2022-08-27T15:57:44.017Z,48.60
2022-08-27T16:00:13.123Z,35.13
2022-08-27T16:02:42.914Z,41.58
2022-08-27T16:05:12.378Z,40.33
2022-08-27T16:07:42.447Z,45.58
2022-08-27T16:10:12.227Z,41.65
2022-08-27T16:12:40.482Z,45.92
2022-08-27T16:15:09.804Z,39.95
2022-08-27T16:17:38.267Z,34.15
2022-08-27T16:20:08.924Z,37.20
2022-08-27T16:22:38.632Z,36.92
2022-08-27T16:25:13.130Z,33.87
2022-08-27T16:27:44.070Z,42.47
2022-08-27T16:30:13.015Z,33.67
2022-08-27T16:32:41.393Z,34.60
2022-08-27T16:35:10.374Z,29.80
2022-08-27T16:37:38.550Z,28.90
2022-08-27T16:40:09.729Z,32.13
2022-08-27T16:42:39.706Z,32.90
2022-08-27T16:45:12.380Z,33.70
2022-08-27T16:47:56.123Z,32.67
2022-08-27T16:50:36.961Z,35.87
2022-08-27T16:53:08.994Z,34.63
2022-08-27T16:55:39.267Z,34.20
2022-08-27T16:58:17.596Z,34.30
2022-08-27T17:00:46.804Z,36.10
2022-08-27T17:03:15.563Z,32.85
2022-08-27T17:05:43.684Z,34.00
2022-08-27T17:08:12.363Z,28.35
2022-08-27T17:10:46.457Z,31.23
2022-08-27T17:13:17.492Z,30.03
2022-08-27T17:15:50.853Z,33.73
2022-08-27T17:18:22.175Z,30.80
2022-08-27T17:20:51.600Z,34.40
2022-08-27T17:23:23.953Z,33.60
2022-08-27T17:25:53.634Z,34.15
2022-08-27T17:28:21.831Z,39.10
2022-08-27T17:30:50.208Z,32.80
2022-08-27T17:33:23.601Z,28.20
2022-08-27T17:35:51.903Z,30.92
2022-08-27T17:38:20.281Z,35.05
2022-08-27T17:40:52.117Z,31.67
2022-08-27T17:43:22.731Z,32.40
2022-08-27T17:45:51.387Z,36.38
2022-08-27T17:48:24.829Z,31.88
2022-08-27T17:50:55.029Z,37.10
2022-08-27T17:53:23.236Z,34.97
2022-08-27T17:55:51.607Z,38.23
2022-08-27T17:58:21.683Z,29.63
2022-08-27T18:00:51.213Z,36.25
2022-08-27T18:03:20.996Z,31.98
2022-08-27T18:05:51.459Z,30.73
2022-08-27T18:08:21.300Z,34.08
2022-08-27T18:10:51.686Z,28.77
2022-08-27T18:13:26.462Z,27.65
2022-08-27T18:15:59.432Z,28.23
2022-08-27T18:18:32.076Z,28.37
2022-08-27T18:21:05.362Z,26.97
2022-08-27T18:23:42.135Z,26.87
2022-08-27T18:26:19.562Z,26.80
2022-08-27T18:28:56.578Z,26.57
2022-08-27T18:31:36.091Z,24.90
2022-08-27T18:34:09.393Z,28.23
2022-08-27T18:36:43.119Z,27.53
2022-08-27T18:39:17.266Z,27.73
2022-08-27T18:41:50.327Z,24.23
2022-08-27T18:44:23.631Z,26.48
2022-08-27T18:46:54.308Z,24.77
2022-08-27T18:49:26.698Z,25.60
2022-08-27T18:51:58.423Z,28.83
2022-08-27T18:54:32.197Z,27.53
2022-08-27T18:57:03.493Z,26.42
2022-08-27T18:59:36.244Z,24.17
2022-08-27T19:02:08.039Z,22.93
2022-08-27T19:04:40.509Z,28.23
2022-08-27T19:07:12.571Z,25.40
2022-08-27T19:09:45.496Z,25.23
2022-08-27T19:12:16.649Z,26.87
2022-08-27T19:14:50.320Z,25.83
2022-08-27T19:17:28.647Z,27.83
2022-08-27T19:20:02.076Z,26.07
2022-08-27T19:22:38.240Z,23.13
2022-08-27T19:25:13.308Z,16.33
2022-08-27T19:27:48.169Z,19.42
2022-08-27T19:30:22.459Z,21.27
2022-08-27T19:32:57.646Z,24.75
2022-08-27T19:35:28.234Z,26.42
2022-08-27T19:38:01.558Z,21.85
2022-08-27T19:40:32.880Z,25.20
2022-08-27T19:43:02.321Z,21.30
2022-08-27T19:45:34.856Z,19.70
2022-08-27T19:48:06.855Z,19.35
2022-08-27T19:50:36.421Z,20.08
2022-08-27T19:53:07.232Z,20.70
2022-08-27T19:55:36.978Z,22.67
2022-08-27T19:58:06.374Z,22.87
2022-08-27T20:00:37.624Z,21.87
2022-08-27T20:03:06.250Z,21.60
2022-08-27T20:05:34.755Z,19.98
2022-08-27T20:08:03.132Z,18.65
2022-08-27T20:10:36.526Z,20.42
2022-08-27T20:13:05.221Z,21.15
2022-08-27T20:15:33.547Z,21.47
2022-08-27T20:18:05.029Z,21.90
2022-08-27T20:20:34.226Z,19.77
2022-08-27T20:23:05.246Z,23.38
2022-08-27T20:25:34.625Z,23.75
2022-08-27T20:28:16.418Z,25.50
2022-08-27T20:30:51.754Z,21.70
2022-08-27T20:33:21.478Z,23.05
2022-08-27T20:35:49.691Z,23.23
2022-08-27T20:38:20.497Z,22.13
2022-08-27T20:40:48.839Z,23.67
2022-08-27T20:43:18.403Z,19.75
2022-08-27T20:45:46.889Z,23.33
2022-08-27T20:48:15.333Z,20.13
2022-08-27T20:50:45.031Z,22.15
2022-08-27T20:53:13.191Z,20.98
2022-08-27T20:55:41.466Z,19.77
2022-08-27T20:58:26.973Z,22.42
2022-08-27T21:00:56.634Z,19.70
2022-08-27T21:03:25.402Z,23.17
2022-08-27T21:05:55.049Z,25.58
2022-08-27T21:08:23.395Z,22.85
2022-08-27T21:10:55.093Z,24.70
2022-08-27T21:13:23.512Z,26.25
2022-08-27T21:15:56.237Z,23.02
2022-08-27T21:18:29.805Z,24.95
2022-08-27T21:21:00.051Z,30.63
2022-08-27T21:23:29.093Z,26.92
2022-08-27T21:26:01.236Z,29.23
2022-08-27T21:28:30.539Z,29.33
2022-08-27T21:31:00.537Z,29.90
2022-08-27T21:33:36.247Z,26.10
2022-08-27T21:36:14.090Z,29.77
2022-08-27T21:38:45.367Z,26.33
2022-08-27T21:41:17.726Z,27.88
2022-08-27T21:43:47.541Z,27.33
2022-08-27T21:46:20.679Z,24.20
2022-08-27T21:48:58.485Z,26.15
2022-08-27T21:51:29.174Z,25.77
2022-08-27T21:53:58.669Z,23.27
2022-08-27T21:56:27.251Z,25.27
2022-08-27T21:58:55.456Z,23.98
2022-08-27T22:01:24.028Z,24.05
2022-08-27T22:03:52.430Z,25.30
2022-08-27T22:06:20.980Z,23.42
2022-08-27T22:08:50.513Z,25.73
2022-08-27T22:11:24.006Z,25.70
2022-08-27T22:13:53.006Z,23.58
2022-08-27T22:16:21.233Z,27.05
2022-08-27T22:18:54.325Z,26.13
2022-08-27T22:21:23.200Z,24.73
2022-08-27T22:23:52.833Z,26.85
2022-08-27T22:26:22.171Z,24.83
2022-08-27T22:28:50.389Z,24.50
2022-08-27T22:31:18.799Z,25.58
2022-08-27T22:33:46.971Z,24.88
2022-08-27T22:36:15.949Z,27.60
2022-08-27T22:38:44.211Z,26.08
2022-08-27T22:41:14.708Z,24.70
2022-08-27T22:43:46.877Z,25.52
2022-08-27T22:46:15.107Z,29.13
2022-08-27T22:48:43.529Z,26.73
2022-08-27T22:51:12.563Z,25.17
2022-08-27T22:53:40.752Z,23.40
2022-08-27T22:56:08.944Z,21.00
2022-08-27T22:58:38.566Z,21.95
2022-08-27T23:01:07.586Z,21.90
2022-08-27T23:03:35.675Z,22.95
2022-08-27T23:06:04.001Z,22.45
2022-08-27T23:08:32.320Z,18.48
2022-08-27T23:11:02.417Z,18.77
2022-08-27T23:13:31.455Z,17.92
2022-08-27T23:16:02.909Z,15.63
2022-08-27T23:18:31.210Z,13.98
2022-08-27T23:21:00.125Z,15.45
2022-08-27T23:23:30.720Z,15.20
2022-08-27T23:26:16.934Z,16.33
2022-08-27T23:28:45.313Z,15.82
2022-08-27T23:31:15.708Z,15.05
2022-08-27T23:33:44.312Z,15.38
2022-08-27T23:36:12.524Z,16.42
2022-08-27T23:38:40.633Z,15.38
2022-08-27T23:41:09.129Z,16.88
2022-08-27T23:43:37.368Z,15.73
2022-08-27T23:46:05.700Z,15.25
2022-08-27T23:48:35.397Z,15.00
2022-08-27T23:51:04.133Z,16.90
2022-08-27T23:53:32.388Z,14.65
2022-08-27T23:56:00.469Z,15.95
2022-08-27T23:58:28.556Z,14.27
